My webcam  My webcam


Besök vår andra vädersida:

Template documentation
and downloads

And another site



Nearby METAR Reports

   
ESOE - Orebro (private), Sweden
Distance from station: SSV 25 km
Updated: 21-04-2021 12:20
Mestadels molningt  
Mestadels molningt  
   Vind: SV 8.2 m/s
Vind: SV 8.2 m/s
Temperature: 11°C
Daggpunkt: 0°C
Luftfuktighet: 47%
Barometer: 1001 hPa
Moln: Mestadels molningt
Visibility: Mer än 10 km
Cloud details: Glesa moln 3000 ft,
Mestadels molningt 7400 ft
ESOE 211020Z AUTO 22016KT 9999 FEW030/// BKN074/// 11/00 Q1001
ESSP - Norrkoping/Kungs, Sweden
Distance from station: SO 114 km
Updated: 21-04-2021 12:20
Delvis molnigt  
Delvis molnigt  
   Vind: Väst 7.7 m/s
Vind: Väst 7.7 m/s
Temperature: 11°C
Daggpunkt: 4°C
Luftfuktighet: 62%
Barometer: 1003 hPa
Moln: Delvis molnigt
Visibility: Mer än 10 km
Cloud details: Delvis molnigt 2800 ft
ESSP 211020Z 27015KT 9999 SCT028 11/04 Q1003
ESSB - Stockholm/Bromma, Sweden
Distance from station: O 156 km
Updated: 21-04-2021 12:20
Klart  
Klart  
   Vind: Syd 4.1 m/s
Vind: Syd 4.1 m/s
Temperature: 15°C
Daggpunkt: -2°C
Luftfuktighet: 31%
Barometer: 1001 hPa
Visibility: Mer än 10 km
Cloud details: Klart
ESSB 211020Z 19008KT 150V220 CAVOK 15/M02 Q1001
ESSV - Visby Airport, Sweden
Distance from station: SO 269 km
Updated: 21-04-2021 12:20
Klart  
Klart  
   Vind: Väst 4.1 m/s
Vind: Väst 4.1 m/s
Temperature: 13°C
Daggpunkt: 3°C
Luftfuktighet: 51%
Barometer: 1004 hPa
Visibility: Mer än 10 km
Cloud details: Klart
ESSV 211020Z 26008KT CAVOK 13/03 Q1004
ESNZ - Ostersund/Froson, Sweden
Distance from station: SSV 1 km
Updated: 21-04-2021 12:20
Lätt regn, Mulet  
Lätt regn, Mulet  
   Vind: NV 5.1 m/s
Vind: NV 5.1 m/s
Temperature: 1°C
Wind Chill: -4°C
Daggpunkt: 1°C
Luftfuktighet: 100%
Barometer: 1002 hPa
Moln: Mulet
Visibility: 6 km
Cloud details: Mulet 700 ft
ESNZ 211020Z AUTO 32010KT 6000 -RA VV007 01/01 Q1002
ESPA - Kallax/Lulea (af, Sweden
Distance from station: SSO 7 km
Updated: 21-04-2021 12:20
Klart  
Klart  
   Vind: SO 5.1 m/s
Vind: SO 5.1 m/s
Temperature: 4°C
Wind Chill: 0°C
Daggpunkt: 1°C
Luftfuktighet: 81%
Barometer: 1004 hPa
Visibility: Mer än 10 km
Cloud details: Klart
ESPA 211020Z 14010KT CAVOK 04/01 Q1004

Script developed by  Saratoga-weather.org Adapted for the template by  Weerstation Leuven